Time;durP1;ratioP1;P1;durP2;ratioP2;P2;SDS_P1;SDS_P2;PMS_P1;PMS_P2;Temp;Humidity;BMP_temperature;BMP_pressure;BME280_temperature;BME280_humidity;BME280_pressure;Samples;Min_cycle;Max_cycle;Signal;HPM_P1;HPM_P2
2023/04/15 00:00:33;;;;;;;7.80;3.83;;;5.80;99.90;;;;;;5134806;27;20117;-73
2023/04/15 00:03:00;;;;;;;9.77;3.92;;;5.80;99.90;;;;;;5134774;27;20039;-73
2023/04/15 00:05:28;;;;;;;7.18;3.70;;;5.70;99.90;;;;;;5135094;27;20027;-73
2023/04/15 00:07:54;;;;;;;5.75;3.75;;;5.70;99.90;;;;;;5134339;27;20046;-73
2023/04/15 00:10:20;;;;;;;6.85;3.70;;;5.70;99.90;;;;;;5135211;27;20470;-73
2023/04/15 00:12:45;;;;;;;6.85;3.88;;;5.80;99.90;;;;;;5134421;27;20095;-72
2023/04/15 00:15:11;;;;;;;5.35;3.60;;;5.80;99.90;;;;;;5135015;27;20110;-73
2023/04/15 00:17:38;;;;;;;8.13;4.07;;;5.80;99.90;;;;;;5135061;27;20041;-74
2023/04/15 00:20:05;;;;;;;11.68;4.30;;;5.70;99.90;;;;;;5134220;27;20122;-73
2023/04/15 00:22:31;;;;;;;6.22;3.70;;;5.60;99.90;;;;;;5135095;27;20401;-73
2023/04/15 00:24:57;;;;;;;9.35;4.32;;;5.60;99.90;;;;;;5134699;27;20104;-72
2023/04/15 00:27:23;;;;;;;9.82;4.25;;;5.50;99.90;;;;;;5135282;27;20023;-72
2023/04/15 00:29:49;;;;;;;6.82;3.72;;;5.50;99.90;;;;;;5134125;27;20031;-73
2023/04/15 00:32:15;;;;;;;10.25;3.83;;;5.40;99.90;;;;;;5134544;27;20022;-73
2023/04/15 00:34:41;;;;;;;6.55;3.47;;;5.40;99.90;;;;;;5134856;27;20045;-75
2023/04/15 00:37:08;;;;;;;6.45;3.38;;;5.30;99.90;;;;;;5134755;27;20027;-73
2023/04/15 00:39:34;;;;;;;7.22;3.67;;;5.30;99.90;;;;;;5134515;27;20083;-73
2023/04/15 00:42:00;;;;;;;7.40;3.47;;;5.30;99.90;;;;;;5133937;27;20386;-74
2023/04/15 00:44:26;;;;;;;8.40;3.60;;;5.30;99.90;;;;;;5134096;27;20046;-73
2023/04/15 00:46:52;;;;;;;10.10;3.08;;;5.30;99.90;;;;;;5133795;27;20023;-73
2023/04/15 00:49:18;;;;;;;8.68;3.58;;;5.50;99.90;;;;;;5134057;27;20456;-74
2023/04/15 00:51:45;;;;;;;7.43;3.22;;;5.50;99.90;;;;;;5133834;27;20030;-76
2023/04/15 00:54:11;;;;;;;7.75;3.40;;;5.50;99.90;;;;;;5134334;27;20120;-74
2023/04/15 00:56:39;;;;;;;7.18;3.60;;;5.60;99.90;;;;;;5115737;27;20109;-74
2023/04/15 00:59:05;;;;;;;9.50;3.95;;;5.50;99.90;;;;;;5133608;27;20768;-74
2023/04/15 01:01:34;;;;;;;8.32;4.20;;;5.40;99.90;;;;;;5133519;27;20023;-74
2023/04/15 01:04:00;;;;;;;13.68;3.97;;;5.30;99.90;;;;;;5133054;27;20472;-74
2023/04/15 01:06:26;;;;;;;8.60;3.92;;;5.20;99.90;;;;;;5134048;27;20027;-74
2023/04/15 01:08:53;;;;;;;8.63;4.00;;;5.20;99.90;;;;;;5133329;27;20054;-74
2023/04/15 01:11:19;;;;;;;7.43;3.42;;;5.20;99.90;;;;;;5115271;27;20038;-73
2023/04/15 01:13:47;;;;;;;8.63;3.65;;;5.30;99.90;;;;;;5133781;27;20035;-77
2023/04/15 01:16:13;;;;;;;9.23;3.75;;;5.30;99.90;;;;;;5133671;27;20024;-74
2023/04/15 01:18:39;;;;;;;10.07;3.50;;;5.30;99.90;;;;;;5133742;27;20061;-74
2023/04/15 01:21:05;;;;;;;8.88;4.30;;;5.30;99.90;;;;;;5133044;27;20022;-74
2023/04/15 01:23:32;;;;;;;6.28;3.80;;;5.20;99.90;;;;;;5133514;27;20047;-73
2023/04/15 01:25:59;;;;;;;7.20;3.63;;;5.30;99.90;;;;;;5133149;27;20034;-73
2023/04/15 01:28:25;;;;;;;9.35;3.85;;;5.20;99.90;;;;;;5115015;27;20019;-72
2023/04/15 01:31:12;;;;;;;8.88;3.85;;;5.20;99.90;;;;;;5132727;27;20028;-73
2023/04/15 01:33:39;;;;;;;9.50;3.55;;;5.20;99.90;;;;;;5133370;27;20100;-73
2023/04/15 01:36:07;;;;;;;9.43;3.30;;;5.20;99.90;;;;;;5114090;27;20661;-73
2023/04/15 01:38:33;;;;;;;7.55;3.22;;;5.20;99.90;;;;;;5133286;27;20027;-73
2023/04/15 01:40:59;;;;;;;7.40;3.28;;;5.20;99.90;;;;;;5132660;27;20035;-72
2023/04/15 01:43:25;;;;;;;8.77;2.92;;;5.20;99.90;;;;;;5132973;27;20027;-73
2023/04/15 01:45:51;;;;;;;9.23;3.55;;;5.20;99.90;;;;;;5132564;27;20106;-73
2023/04/15 01:48:17;;;;;;;7.30;3.22;;;5.10;99.90;;;;;;5133519;27;20119;-73
2023/04/15 01:50:43;;;;;;;9.15;3.83;;;5.20;99.90;;;;;;5133375;27;20022;-73
2023/04/15 01:53:09;;;;;;;9.52;4.03;;;5.20;99.90;;;;;;5132868;27;20027;-73
2023/04/15 01:55:35;;;;;;;7.22;3.60;;;5.10;99.90;;;;;;5133401;27;20029;-73
2023/04/15 01:58:01;;;;;;;9.45;3.78;;;5.10;99.90;;;;;;5132703;27;20117;-73
2023/04/15 02:00:27;;;;;;;9.95;3.83;;;5.10;99.90;;;;;;5133393;27;20110;-74
2023/04/15 02:02:53;;;;;;;7.93;3.47;;;5.00;99.90;;;;;;5132406;27;20489;-73
2023/04/15 02:05:19;;;;;;;8.80;3.55;;;5.00;99.90;;;;;;5132962;27;20023;-74
2023/04/15 02:07:45;;;;;;;8.85;3.47;;;5.00;99.90;;;;;;5132825;27;20066;-73
2023/04/15 02:10:12;;;;;;;6.28;3.20;;;4.90;99.90;;;;;;5132621;27;20052;-73
2023/04/15 02:12:38;;;;;;;8.20;3.83;;;4.90;99.90;;;;;;5132186;27;20106;-73
2023/04/15 02:15:04;;;;;;;8.68;3.85;;;4.90;99.90;;;;;;5132680;27;20077;-73
2023/04/15 02:17:36;;;;;;;7.30;3.72;;;4.80;99.90;;;;;;5132618;27;20106;-74
2023/04/15 02:20:04;;;;;;;8.07;3.55;;;4.90;99.90;;;;;;5132201;27;20079;-74
2023/04/15 02:22:30;;;;;;;9.07;3.28;;;4.80;99.90;;;;;;5132460;27;20469;-74
2023/04/15 02:24:56;;;;;;;9.27;3.38;;;4.80;99.90;;;;;;5131859;27;20223;-74
2023/04/15 02:27:22;;;;;;;8.60;3.47;;;4.80;99.90;;;;;;5132971;27;20019;-73
2023/04/15 02:29:50;;;;;;;9.32;3.70;;;4.70;99.90;;;;;;5132757;27;20054;-73
2023/04/15 02:32:16;;;;;;;7.20;3.35;;;4.70;99.90;;;;;;5113808;27;20027;-73
2023/04/15 02:34:41;;;;;;;8.18;3.92;;;4.70;99.90;;;;;;5132669;27;20456;-74
2023/04/15 02:37:09;;;;;;;7.97;3.63;;;4.70;99.90;;;;;;5131984;27;20034;-73
2023/04/15 02:39:35;;;;;;;9.73;3.83;;;4.60;99.90;;;;;;5132603;27;20470;-73
2023/04/15 02:42:01;;;;;;;10.20;4.00;;;4.60;99.90;;;;;;5131392;27;20116;-73
2023/04/15 02:44:27;;;;;;;7.88;3.45;;;4.50;99.90;;;;;;5132168;27;20031;-73
2023/04/15 02:46:53;;;;;;;7.70;3.90;;;4.50;99.90;;;;;;5132095;27;20027;-75
2023/04/15 02:49:20;;;;;;;8.90;3.60;;;4.50;99.90;;;;;;5132310;27;20034;-74
2023/04/15 02:51:50;;;;;;;9.60;3.67;;;4.40;99.90;;;;;;5132125;27;20037;-73
2023/04/15 02:54:19;;;;;;;8.20;4.43;;;4.40;99.90;;;;;;5131664;27;20106;-73
2023/04/15 02:56:45;;;;;;;9.63;3.47;;;4.50;99.90;;;;;;5132163;27;20023;-73
2023/04/15 02:59:14;;;;;;;7.95;3.55;;;4.50;99.90;;;;;;5131586;27;20651;-73
2023/04/15 03:01:39;;;;;;;11.27;4.32;;;4.40;99.90;;;;;;5131856;27;20048;-73
2023/04/15 03:04:07;;;;;;;11.00;3.90;;;4.50;99.90;;;;;;5131214;27;20043;-72
2023/04/15 03:06:33;;;;;;;7.00;3.72;;;4.50;99.90;;;;;;5132039;27;20080;-74
2023/04/15 03:09:01;;;;;;;7.70;3.70;;;4.50;99.90;;;;;;5112985;27;20042;-74
2023/04/15 03:11:27;;;;;;;9.15;3.70;;;4.50;99.90;;;;;;5131526;27;20360;-73
2023/04/15 03:13:53;;;;;;;10.48;3.90;;;4.50;99.90;;;;;;5131632;27;20023;-76
2023/04/15 03:16:19;;;;;;;9.48;3.90;;;4.40;99.90;;;;;;5113249;28;20030;-73
2023/04/15 03:18:45;;;;;;;8.70;3.38;;;4.40;99.90;;;;;;5131985;27;20259;-73
2023/04/15 03:21:11;;;;;;;9.20;3.22;;;4.40;99.90;;;;;;5131498;27;20109;-73
2023/04/15 03:23:36;;;;;;;7.13;3.65;;;4.40;99.90;;;;;;5130899;27;20047;-74
2023/04/15 03:26:03;;;;;;;7.22;3.40;;;4.40;99.90;;;;;;5131049;27;20318;-73
2023/04/15 03:28:29;;;;;;;7.40;3.33;;;4.40;99.90;;;;;;5131619;28;20033;-73
2023/04/15 03:30:56;;;;;;;11.25;3.80;;;4.40;99.90;;;;;;5131309;28;20031;-76
2023/04/15 03:33:21;;;;;;;8.43;3.85;;;4.40;99.90;;;;;;5131713;28;20035;-72
2023/04/15 03:35:47;;;;;;;7.35;3.88;;;4.30;99.90;;;;;;5113280;28;20491;-73
2023/04/15 03:38:13;;;;;;;7.43;3.75;;;4.30;99.90;;;;;;5131032;28;20106;-73
2023/04/15 03:40:41;;;;;;;8.73;3.78;;;4.30;99.90;;;;;;5113418;28;20023;-73
2023/04/15 03:43:06;;;;;;;9.95;4.00;;;4.30;99.90;;;;;;5112585;28;20023;-73
2023/04/15 03:45:32;;;;;;;7.35;3.35;;;4.20;99.90;;;;;;5131853;28;20027;-73
2023/04/15 03:47:58;;;;;;;6.32;3.53;;;4.20;99.90;;;;;;5131030;28;20058;-73
2023/04/15 03:50:24;;;;;;;8.68;3.95;;;4.20;99.90;;;;;;5131137;28;20023;-72
2023/04/15 03:52:49;;;;;;;13.20;4.03;;;4.20;99.90;;;;;;5131119;28;20038;-73
2023/04/15 03:55:15;;;;;;;11.00;4.25;;;4.20;99.90;;;;;;5112283;28;20617;-73
2023/04/15 03:57:41;;;;;;;12.30;4.28;;;4.10;99.90;;;;;;5131104;28;20027;-73
2023/04/15 04:00:09;;;;;;;8.50;4.15;;;4.00;99.90;;;;;;5130882;28;20028;-73
2023/04/15 04:02:35;;;;;;;8.82;3.42;;;3.90;99.90;;;;;;5131175;28;20038;-73
2023/04/15 04:05:01;;;;;;;12.02;4.22;;;3.90;99.90;;;;;;5130691;28;20035;-74
2023/04/15 04:07:26;;;;;;;9.88;3.83;;;3.90;99.90;;;;;;5131583;28;20023;-73
2023/04/15 04:09:52;;;;;;;10.75;4.10;;;3.80;99.90;;;;;;5131602;28;20024;-73
2023/04/15 04:12:18;;;;;;;9.70;4.25;;;3.80;99.90;;;;;;5131310;28;20032;-73
2023/04/15 04:14:44;;;;;;;11.45;5.10;;;3.70;99.90;;;;;;5131518;28;20072;-73
2023/04/15 04:17:10;;;;;;;15.52;4.35;;;3.70;99.90;;;;;;5130998;28;20464;-74
2023/04/15 04:19:36;;;;;;;8.88;3.72;;;3.70;99.90;;;;;;5113109;28;20052;-73
2023/04/15 04:22:02;;;;;;;11.45;4.18;;;3.70;99.90;;;;;;5130380;28;20019;-74
2023/04/15 04:24:27;;;;;;;11.63;4.30;;;3.80;99.90;;;;;;5130864;28;20066;-74
2023/04/15 04:26:53;;;;;;;10.27;4.05;;;3.80;99.90;;;;;;5131329;28;20031;-74
2023/04/15 04:29:19;;;;;;;10.90;3.95;;;3.80;99.90;;;;;;5130590;28;20027;-74
2023/04/15 04:31:45;;;;;;;11.60;4.30;;;3.90;99.90;;;;;;5112715;28;20348;-73
2023/04/15 04:34:11;;;;;;;9.30;4.10;;;3.90;99.90;;;;;;5130660;27;20068;-74
2023/04/15 04:36:37;;;;;;;11.40;3.85;;;3.90;99.90;;;;;;5134038;27;20098;-74
2023/04/15 04:39:02;;;;;;;12.70;4.30;;;3.90;99.90;;;;;;5134225;27;20108;-74
2023/04/15 04:41:28;;;;;;;7.78;3.72;;;3.90;99.90;;;;;;5134601;27;20029;-74
2023/04/15 04:43:54;;;;;;;7.55;3.85;;;3.90;99.90;;;;;;5134681;27;20035;-74
2023/04/15 04:46:20;;;;;;;9.25;3.97;;;3.90;99.90;;;;;;5115351;27;20027;-74
2023/04/15 04:48:46;;;;;;;7.70;4.00;;;3.90;99.90;;;;;;5134353;27;20027;-72
2023/04/15 04:51:12;;;;;;;12.10;4.05;;;3.90;99.90;;;;;;5115395;27;20381;-73
2023/04/15 04:53:37;;;;;;;6.35;4.00;;;3.80;99.90;;;;;;5134078;27;20114;-73
2023/04/15 04:56:03;;;;;;;13.10;4.50;;;3.90;99.90;;;;;;5115490;27;20516;-74
2023/04/15 04:58:29;;;;;;;9.77;3.97;;;3.90;99.90;;;;;;5134061;27;20027;-73
2023/04/15 05:00:55;;;;;;;9.68;3.80;;;3.90;99.90;;;;;;5134342;27;20023;-73
2023/04/15 05:03:21;;;;;;;15.43;4.63;;;3.90;99.90;;;;;;5133361;27;20523;-73
2023/04/15 05:05:48;;;;;;;11.40;4.18;;;3.90;99.90;;;;;;5133983;27;20023;-73
2023/04/15 05:08:14;;;;;;;11.90;4.70;;;3.90;99.90;;;;;;5133735;27;20034;-73
2023/04/15 05:10:40;;;;;;;11.95;4.28;;;3.90;99.90;;;;;;5134159;27;20054;-73
2023/04/15 05:13:06;;;;;;;7.15;3.95;;;3.90;99.90;;;;;;5133269;27;20070;-74
2023/04/15 05:15:33;;;;;;;14.82;4.38;;;3.90;99.90;;;;;;5134167;27;20030;-73
2023/04/15 05:17:59;;;;;;;11.40;5.70;;;4.00;99.90;;;;;;5134165;27;20405;-73
2023/04/15 05:20:25;;;;;;;18.90;7.88;;;3.90;99.90;;;;;;5133551;27;20027;-73
2023/04/15 05:22:51;;;;;;;16.83;7.57;;;3.80;99.90;;;;;;5133520;27;20026;-73
2023/04/15 05:25:17;;;;;;;11.20;4.70;;;3.80;99.90;;;;;;5133471;27;20043;-72
2023/04/15 05:27:43;;;;;;;14.38;6.88;;;3.80;99.90;;;;;;5134353;27;20058;-73
2023/04/15 05:30:09;;;;;;;9.68;4.38;;;3.70;99.90;;;;;;5133473;27;20460;-74
2023/04/15 05:32:34;;;;;;;15.18;5.00;;;3.70;99.90;;;;;;5134080;27;20027;-74
2023/04/15 05:35:00;;;;;;;23.05;11.07;;;3.70;99.90;;;;;;5133946;27;20105;-74
2023/04/15 05:37:26;;;;;;;38.72;25.60;;;3.70;99.90;;;;;;5132998;27;20030;-72
2023/04/15 05:39:52;;;;;;;18.75;9.52;;;3.70;99.90;;;;;;5133962;27;20022;-73
2023/04/15 05:42:17;;;;;;;29.35;19.23;;;3.60;99.90;;;;;;5133517;27;20023;-73
2023/04/15 05:44:43;;;;;;;29.13;20.23;;;3.60;99.90;;;;;;5133729;27;20027;-73
2023/04/15 05:47:09;;;;;;;15.27;7.40;;;3.60;99.90;;;;;;5133026;27;20083;-74
2023/04/15 05:49:35;;;;;;;8.48;4.60;;;3.50;99.90;;;;;;5133867;27;20054;-74
2023/04/15 05:52:01;;;;;;;20.00;11.75;;;3.50;99.90;;;;;;5133225;27;20035;-73
2023/04/15 05:54:27;;;;;;;20.85;12.52;;;3.50;99.90;;;;;;5132510;27;20351;-73
2023/04/15 05:56:53;;;;;;;26.08;13.57;;;3.60;99.90;;;;;;5133354;27;20088;-74
2023/04/15 05:59:19;;;;;;;51.42;17.73;;;3.70;99.90;;;;;;5132677;27;20386;-73
2023/04/15 06:01:45;;;;;;;95.45;27.52;;;3.80;99.90;;;;;;5133480;27;20031;-72
2023/04/15 06:04:11;;;;;;;66.78;20.02;;;3.90;99.90;;;;;;5132742;27;20035;-73
2023/04/15 06:06:37;;;;;;;62.80;19.13;;;4.10;99.90;;;;;;5133699;27;20046;-73
2023/04/15 06:09:03;;;;;;;73.63;20.65;;;4.20;99.90;;;;;;5133281;27;20034;-74
2023/04/15 06:11:29;;;;;;;171.35;44.08;;;4.40;99.90;;;;;;5132860;27;20023;-74
2023/04/15 06:13:55;;;;;;;91.28;23.27;;;4.50;99.90;;;;;;5133111;27;20047;-74
2023/04/15 06:16:22;;;;;;;70.57;17.83;;;4.70;99.90;;;;;;5132476;27;20031;-72
2023/04/15 06:18:47;;;;;;;14.55;4.80;;;4.80;99.90;;;;;;5132695;27;20498;-73
2023/04/15 06:21:14;;;;;;;17.77;6.25;;;4.90;99.90;;;;;;5131942;27;20024;-73
2023/04/15 06:23:40;;;;;;;24.83;7.57;;;5.00;99.90;;;;;;5132569;27;20066;-73
2023/04/15 06:26:06;;;;;;;69.25;17.23;;;5.20;99.90;;;;;;5132849;27;20371;-76
2023/04/15 06:28:32;;;;;;;37.00;11.18;;;5.30;99.90;;;;;;5114274;27;20062;-73
2023/04/15 06:30:58;;;;;;;20.70;6.22;;;5.50;99.90;;;;;;5132655;27;20056;-73
2023/04/15 06:33:23;;;;;;;26.92;7.70;;;5.60;99.90;;;;;;5132163;27;20503;-74
2023/04/15 06:35:49;;;;;;;23.83;7.30;;;5.80;99.90;;;;;;5114073;27;20027;-74
2023/04/15 06:38:15;;;;;;;11.70;4.68;;;5.90;99.90;;;;;;5113347;27;20064;-74
2023/04/15 06:40:41;;;;;;;15.43;4.63;;;6.10;99.90;;;;;;5132701;27;20038;-73
2023/04/15 06:43:08;;;;;;;12.75;5.07;;;6.10;99.90;;;;;;5131816;27;20059;-77
2023/04/15 06:45:34;;;;;;;13.85;5.75;;;6.20;99.90;;;;;;5131896;27;20057;-73
2023/04/15 06:48:00;;;;;;;44.97;13.82;;;6.40;99.90;;;;;;5132251;27;20449;-74
2023/04/15 06:50:26;;;;;;;19.48;6.53;;;6.50;99.90;;;;;;5131320;27;20152;-74
2023/04/15 06:52:53;;;;;;;15.05;4.53;;;6.70;99.90;;;;;;5132164;27;20121;-74
2023/04/15 06:55:19;;;;;;;8.38;3.25;;;6.90;99.90;;;;;;5131354;27;20023;-74
2023/04/15 06:57:45;;;;;;;13.23;4.78;;;7.00;99.90;;;;;;5131478;27;20053;-74
2023/04/15 07:00:11;;;;;;;15.45;5.57;;;7.10;99.90;;;;;;5131302;27;20027;-76
2023/04/15 07:02:37;;;;;;;11.23;4.35;;;7.30;99.90;;;;;;5131740;27;20027;-74
2023/04/15 07:05:06;;;;;;;11.85;4.20;;;7.40;99.90;;;;;;5131848;27;20034;-73
2023/04/15 07:07:32;;;;;;;10.75;4.68;;;7.50;99.90;;;;;;5131085;27;20026;-73
2023/04/15 07:09:58;;;;;;;12.35;5.05;;;7.60;99.90;;;;;;5131739;27;20024;-74
2023/04/15 07:12:23;;;;;;;10.35;4.43;;;7.70;99.90;;;;;;5131280;27;20028;-74
2023/04/15 07:14:49;;;;;;;9.23;4.10;;;7.80;99.90;;;;;;5131670;27;20023;-73
2023/04/15 07:17:15;;;;;;;8.50;3.63;;;7.90;99.90;;;;;;5131350;27;20065;-74
2023/04/15 07:19:41;;;;;;;12.73;3.58;;;8.00;99.90;;;;;;5131715;27;20471;-73
2023/04/15 07:22:06;;;;;;;9.82;3.28;;;8.20;99.90;;;;;;5131823;27;20076;-73
2023/04/15 07:24:32;;;;;;;12.00;3.40;;;8.40;99.90;;;;;;5130912;27;20062;-74
2023/04/15 07:26:58;;;;;;;9.25;2.80;;;8.50;99.90;;;;;;5131317;27;20540;-73
2023/04/15 07:29:25;;;;;;;7.80;2.88;;;8.60;99.90;;;;;;5130853;28;20031;-74
2023/04/15 07:31:51;;;;;;;6.65;2.60;;;8.70;99.90;;;;;;5131279;28;20372;-72
2023/04/15 07:34:19;;;;;;;10.85;3.13;;;8.90;99.90;;;;;;5130777;28;20042;-73
2023/04/15 07:36:49;;;;;;;5.25;2.40;;;9.00;99.90;;;;;;5131078;28;20413;-73
2023/04/15 07:39:15;;;;;;;10.98;2.90;;;9.10;99.90;;;;;;5130877;28;20056;-73
2023/04/15 07:41:41;;;;;;;7.15;2.58;;;9.20;99.90;;;;;;5131444;28;20023;-73
2023/04/15 07:44:08;;;;;;;8.48;3.00;;;9.20;99.90;;;;;;5130988;28;20042;-73
2023/04/15 07:46:34;;;;;;;10.68;2.55;;;9.20;99.90;;;;;;5130639;28;20046;-73
2023/04/15 07:49:00;;;;;;;9.90;3.00;;;9.30;99.90;;;;;;5131002;28;20460;-73
2023/04/15 07:51:25;;;;;;;5.75;2.10;;;9.40;99.90;;;;;;5130840;28;20023;-74
2023/04/15 07:53:51;;;;;;;5.85;2.13;;;9.50;99.90;;;;;;5131607;28;20028;-72
2023/04/15 07:56:17;;;;;;;4.00;1.85;;;9.60;99.90;;;;;;5130725;28;20028;-74
2023/04/15 07:58:43;;;;;;;6.60;1.70;;;9.60;99.90;;;;;;5131523;28;20482;-73
2023/04/15 08:01:08;;;;;;;9.30;2.67;;;9.70;99.90;;;;;;5131369;28;20034;-74
2023/04/15 08:03:34;;;;;;;7.15;1.90;;;9.60;99.90;;;;;;5130603;28;20111;-73
2023/04/15 08:06:00;;;;;;;10.00;2.10;;;9.70;99.90;;;;;;5131441;28;20031;-73
2023/04/15 08:08:26;;;;;;;10.85;2.35;;;9.70;99.90;;;;;;5130812;28;20075;-73
2023/04/15 08:10:51;;;;;;;5.50;2.40;;;9.80;99.90;;;;;;5133204;27;20031;-72
2023/04/15 08:13:17;;;;;;;8.93;2.15;;;9.80;99.90;;;;;;5134653;27;20364;-74
2023/04/15 08:15:43;;;;;;;5.90;2.40;;;9.90;99.90;;;;;;5135016;27;20416;-73
2023/04/15 08:18:09;;;;;;;5.43;2.15;;;10.00;99.90;;;;;;5135038;27;20030;-73
2023/04/15 08:20:36;;;;;;;7.00;1.80;;;10.10;99.90;;;;;;5134379;27;20067;-72
2023/04/15 08:23:02;;;;;;;7.55;1.95;;;10.00;99.90;;;;;;5134708;27;20110;-73
2023/04/15 08:25:28;;;;;;;2.83;1.73;;;9.80;99.90;;;;;;5133954;27;20146;-73
2023/04/15 08:27:57;;;;;;;5.90;1.92;;;9.80;99.90;;;;;;5135445;27;20374;-73
2023/04/15 08:30:22;;;;;;;6.93;2.20;;;9.90;99.90;;;;;;5134114;27;20042;-73
2023/04/15 08:32:50;;;;;;;4.55;1.45;;;10.10;99.90;;;;;;5134408;27;20031;-74
2023/04/15 08:35:16;;;;;;;4.82;2.00;;;9.90;99.90;;;;;;5142135;27;20026;-78
2023/04/15 08:37:42;;;;;;;3.95;1.70;;;10.00;99.90;;;;;;5149197;27;20026;-73
2023/04/15 08:40:08;;;;;;;5.45;1.80;;;10.20;99.90;;;;;;5155191;27;20412;-72
2023/04/15 08:42:42;;;;;;;4.57;1.67;;;10.30;99.90;;;;;;5154489;27;20368;-73
2023/04/15 08:45:12;;;;;;;5.07;1.52;;;10.30;99.90;;;;;;5154825;27;20049;-72
2023/04/15 08:47:39;;;;;;;3.03;1.58;;;10.10;99.90;;;;;;5154447;27;20834;-73
2023/04/15 08:50:07;;;;;;;4.75;1.60;;;10.10;99.90;;;;;;5155219;27;20205;-71
2023/04/15 08:52:34;;;;;;;8.63;1.73;;;10.20;99.90;;;;;;5154512;27;20019;-74
2023/04/15 08:55:02;;;;;;;5.50;1.60;;;10.40;99.90;;;;;;5154839;27;20033;-74
2023/04/15 08:57:28;;;;;;;2.35;1.40;;;10.70;99.90;;;;;;5153872;27;20050;-73
2023/04/15 08:59:57;;;;;;;7.85;1.48;;;10.80;99.90;;;;;;5154952;27;20034;-73
2023/04/15 09:02:25;;;;;;;4.40;1.20;;;10.90;99.90;;;;;;5154144;27;20018;-74
2023/04/15 09:04:52;;;;;;;3.42;1.33;;;11.00;99.90;;;;;;5155001;27;20069;-73
2023/04/15 09:07:18;;;;;;;5.53;1.50;;;11.10;99.90;;;;;;5135972;27;20105;-77
2023/04/15 09:09:43;;;;;;;5.88;1.20;;;11.00;99.90;;;;;;5154386;27;20151;-74
2023/04/15 09:12:11;;;;;;;4.30;1.20;;;11.00;99.90;;;;;;5154349;27;20085;-74
2023/04/15 09:14:42;;;;;;;3.00;1.42;;;10.80;99.90;;;;;;5153697;27;20508;-73
2023/04/15 09:17:10;;;;;;;3.22;1.08;;;10.80;99.90;;;;;;5154985;27;20467;-73
2023/04/15 09:19:36;;;;;;;3.55;1.00;;;10.70;99.90;;;;;;5153983;27;20110;-71
2023/04/15 09:22:02;;;;;;;2.00;1.25;;;10.80;99.90;;;;;;5154294;27;20054;-73
2023/04/15 09:24:40;;;;;;;5.55;1.60;;;10.70;99.90;;;;;;5153652;27;20057;-73
2023/04/15 09:27:06;;;;;;;4.72;1.38;;;10.90;99.90;;;;;;5154445;27;20022;-74
2023/04/15 09:29:32;;;;;;;4.45;1.48;;;11.10;99.90;;;;;;5153671;27;20357;-72
2023/04/15 09:32:15;;;;;;;4.68;1.35;;;11.20;99.90;;;;;;5135616;27;20035;-74
2023/04/15 09:34:41;;;;;;;5.05;1.50;;;11.20;99.90;;;;;;5153378;27;20231;-74
2023/04/15 09:37:09;;;;;;;1.45;0.57;;;11.30;99.90;;;;;;5154439;27;20058;-73
2023/04/15 09:39:49;;;;;;;1.65;0.80;;;11.30;99.90;;;;;;5153556;27;20083;-73
2023/04/15 09:42:16;;;;;;;2.45;0.60;;;11.40;99.90;;;;;;5154166;27;20030;-73
2023/04/15 09:44:42;;;;;;;1.55;0.60;;;11.50;99.90;;;;;;5153672;27;20023;-72
2023/04/15 09:47:08;;;;;;;2.05;0.68;;;11.70;99.90;;;;;;5154155;27;20066;-74
2023/04/15 09:49:34;;;;;;;0.65;0.57;;;11.80;99.90;;;;;;5153517;27;20469;-73
2023/04/15 09:52:01;;;;;;;3.65;1.33;;;12.00;99.90;;;;;;5154232;27;20086;-73
2023/04/15 09:54:37;;;;;;;1.00;0.60;;;12.10;99.90;;;;;;5153484;27;20058;-73
2023/04/15 09:57:07;;;;;;;2.35;0.68;;;12.20;99.90;;;;;;5153835;27;20023;-74
2023/04/15 09:59:33;;;;;;;2.92;0.55;;;12.30;99.90;;;;;;5153052;27;20347;-73
2023/04/15 10:02:01;;;;;;;2.08;0.80;;;12.20;99.90;;;;;;5154729;27;20030;-74
2023/04/15 10:04:28;;;;;;;1.95;0.80;;;12.20;99.90;;;;;;5153878;27;20114;-73
2023/04/15 10:06:54;;;;;;;1.15;0.60;;;12.20;99.90;;;;;;5154662;27;20023;-73
2023/04/15 10:09:20;;;;;;;1.27;0.68;;;12.10;99.90;;;;;;5154797;27;20113;-73
2023/04/15 10:11:48;;;;;;;2.30;0.57;;;12.10;99.90;;;;;;5154305;27;20070;-74
2023/04/15 10:14:15;;;;;;;2.33;0.77;;;12.20;99.90;;;;;;5135856;27;20050;-73
2023/04/15 10:16:42;;;;;;;1.70;0.60;;;12.20;99.90;;;;;;5153699;27;20023;-73
2023/04/15 10:19:09;;;;;;;1.40;0.55;;;12.20;99.90;;;;;;5154296;27;20502;-74
2023/04/15 10:21:36;;;;;;;2.67;0.77;;;12.20;99.90;;;;;;5154247;27;20023;-74
2023/04/15 10:24:03;;;;;;;3.10;0.80;;;12.20;99.90;;;;;;5154136;27;20074;-73
2023/04/15 10:26:30;;;;;;;2.40;0.70;;;12.20;99.90;;;;;;5134964;27;20015;-73
2023/04/15 10:28:56;;;;;;;1.77;0.55;;;12.20;99.90;;;;;;5153700;27;20030;-73
2023/04/15 10:31:22;;;;;;;0.98;0.60;;;12.20;99.90;;;;;;5153750;27;20098;-74
2023/04/15 10:33:49;;;;;;;1.05;0.60;;;12.30;99.90;;;;;;5152582;27;20038;-74
2023/04/15 10:36:15;;;;;;;0.82;0.57;;;12.30;99.90;;;;;;5154280;27;20474;-73
2023/04/15 10:38:45;;;;;;;1.48;0.40;;;12.30;99.90;;;;;;5153179;27;20480;-74
2023/04/15 10:41:21;;;;;;;0.85;0.43;;;12.40;99.90;;;;;;5153580;27;20022;-73
2023/04/15 10:43:56;;;;;;;4.25;0.70;;;12.30;99.90;;;;;;5153400;27;20037;-73
2023/04/15 10:46:37;;;;;;;1.02;0.60;;;12.40;99.90;;;;;;5153579;27;20435;-74
2023/04/15 10:49:14;;;;;;;2.15;0.52;;;12.50;99.90;;;;;;5153210;27;20026;-74
2023/04/15 10:51:50;;;;;;;2.40;0.55;;;12.50;99.90;;;;;;5134378;27;20031;-74
2023/04/15 10:54:26;;;;;;;3.22;0.70;;;12.60;99.90;;;;;;5153752;27;20149;-74
2023/04/15 10:57:04;;;;;;;3.65;0.90;;;12.70;99.90;;;;;;5153696;27;20019;-74
2023/04/15 10:59:57;;;;;;;1.55;0.90;;;12.80;99.90;;;;;;5153458;27;20019;-73
2023/04/15 11:02:51;;;;;;;3.95;1.33;;;12.90;99.90;;;;;;5153757;27;20023;-73
2023/04/15 11:05:18;;;;;;;3.30;1.05;;;13.00;99.90;;;;;;5152898;27;20420;-73
2023/04/15 11:07:48;;;;;;;2.08;1.17;;;13.10;99.90;;;;;;5153151;27;20026;-74
2023/04/15 11:10:20;;;;;;;3.30;1.10;;;13.00;99.90;;;;;;5153891;27;20026;-73
2023/04/15 11:12:47;;;;;;;1.95;1.10;;;13.00;99.90;;;;;;5152795;27;20027;-73
2023/04/15 11:15:41;;;;;;;4.13;1.00;;;12.90;99.90;;;;;;5153769;27;20102;-73
2023/04/15 11:18:21;;;;;;;3.50;0.88;;;12.90;99.90;;;;;;5154009;27;20030;-73
2023/04/15 11:20:50;;;;;;;2.28;1.10;;;13.00;99.90;;;;;;5152054;27;20643;-73
2023/04/15 11:23:18;;;;;;;3.67;1.35;;;13.10;99.90;;;;;;5151830;27;20191;-74
2023/04/15 11:25:45;;;;;;;4.40;1.55;;;13.00;99.90;;;;;;5151705;27;20019;-74
2023/04/15 11:28:12;;;;;;;4.18;1.27;;;13.00;99.90;;;;;;5152046;27;20026;-74
2023/04/15 11:30:38;;;;;;;4.05;0.90;;;12.80;99.90;;;;;;5151397;27;20019;-74
2023/04/15 11:33:07;;;;;;;6.10;1.08;;;12.70;99.90;;;;;;5151672;27;20453;-74
2023/04/15 11:35:33;;;;;;;2.78;1.20;;;12.70;99.90;;;;;;5151416;27;20069;-74
2023/04/15 11:38:04;;;;;;;3.45;0.95;;;12.80;99.90;;;;;;5151954;27;20023;-73
2023/04/15 11:40:32;;;;;;;2.47;1.50;;;12.80;99.90;;;;;;5151305;27;20022;-76
2023/04/15 11:43:19;;;;;;;2.53;1.00;;;12.90;99.90;;;;;;5151895;27;20039;-73
2023/04/15 11:45:50;;;;;;;2.35;0.80;;;13.00;99.90;;;;;;5154962;27;20043;-73
2023/04/15 11:48:16;;;;;;;2.33;1.15;;;12.80;99.90;;;;;;5156076;27;20022;-73
2023/04/15 11:50:42;;;;;;;2.65;0.98;;;12.90;99.90;;;;;;5155574;27;20022;-73
2023/04/15 11:53:12;;;;;;;3.92;1.02;;;13.10;99.90;;;;;;5156102;27;20034;-73
2023/04/15 11:55:47;;;;;;;4.70;1.10;;;13.10;99.90;;;;;;5136851;27;20050;-73
2023/04/15 11:58:16;;;;;;;2.20;1.02;;;13.00;99.90;;;;;;5155996;27;20041;-73
2023/04/15 12:00:53;;;;;;;3.95;0.90;;;12.90;99.90;;;;;;5155123;27;20097;-72
2023/04/15 12:03:35;;;;;;;3.67;1.00;;;12.80;99.90;;;;;;5155789;27;20127;-73
2023/04/15 12:06:18;;;;;;;2.03;0.80;;;13.00;99.90;;;;;;5155788;27;20037;-74
2023/04/15 12:09:17;;;;;;;4.30;1.23;;;13.00;99.90;;;;;;5155501;27;20053;-73
2023/04/15 12:11:46;;;;;;;2.85;1.00;;;13.00;99.90;;;;;;5155399;27;20030;-74
2023/04/15 12:14:25;;;;;;;4.47;1.35;;;13.00;99.90;;;;;;5137171;27;20400;-74
2023/04/15 12:17:03;;;;;;;1.63;1.02;;;13.00;99.90;;;;;;5136440;27;20623;-74
2023/04/15 12:19:37;;;;;;;3.10;1.23;;;13.20;99.90;;;;;;5155980;27;20027;-73
2023/04/15 12:22:14;;;;;;;6.30;1.17;;;13.30;99.90;;;;;;5155479;27;20456;-73
2023/04/15 12:24:42;;;;;;;4.18;1.42;;;13.30;99.90;;;;;;5154975;27;20099;-73
2023/04/15 12:27:11;;;;;;;1.90;0.70;;;13.20;99.90;;;;;;5155503;27;20050;-72
2023/04/15 12:29:39;;;;;;;3.17;0.90;;;13.00;99.90;;;;;;5136051;27;20057;-73
2023/04/15 12:32:07;;;;;;;1.92;1.20;;;13.00;99.90;;;;;;5155500;27;20027;-73
2023/04/15 12:34:38;;;;;;;6.55;1.50;;;13.00;99.90;;;;;;5155325;27;20034;-76
2023/04/15 12:37:06;;;;;;;2.08;1.02;;;13.10;99.90;;;;;;5155315;27;20019;-72
2023/04/15 12:39:35;;;;;;;3.72;1.42;;;12.90;99.90;;;;;;5155379;27;20110;-73
2023/04/15 12:42:02;;;;;;;3.35;1.65;;;12.80;99.90;;;;;;5155312;27;20015;-73
2023/04/15 12:44:28;;;;;;;3.03;1.50;;;12.90;99.90;;;;;;5145085;27;20437;-73
2023/04/15 12:46:54;;;;;;;8.10;1.73;;;13.10;99.90;;;;;;5133731;27;20103;-73
2023/04/15 12:49:21;;;;;;;4.13;1.70;;;12.90;99.90;;;;;;5134909;27;20372;-72
2023/04/15 12:51:51;;;;;;;8.73;2.00;;;12.90;99.90;;;;;;5133905;27;20023;-73